Time;durP1;ratioP1;P1;durP2;ratioP2;P2;SDS_P1;SDS_P2;PMS_P1;PMS_P2;Temp;Humidity;BMP_temperature;BMP_pressure;BME280_temperature;BME280_humidity;BME280_pressure;Samples;Min_cycle;Max_cycle;Signal;HPM_P1;HPM_P2
2022/12/12 00:01:29;;;;;;;21.77;13.67;;;-3.00;99.90;;;;;;4994395;28;20183;-84
2022/12/12 00:03:55;;;;;;;22.57;13.37;;;-3.00;99.90;;;;;;4994520;28;20191;-84
2022/12/12 00:06:22;;;;;;;29.20;15.07;;;-3.00;99.90;;;;;;4994526;28;20195;-84
2022/12/12 00:08:48;;;;;;;24.93;14.87;;;-3.00;99.90;;;;;;4994500;28;20188;-84
2022/12/12 00:11:14;;;;;;;23.97;14.13;;;-3.00;99.90;;;;;;4994413;28;20188;-84
2022/12/12 00:13:41;;;;;;;25.43;14.47;;;-3.00;99.90;;;;;;4994175;28;20168;-84
2022/12/12 00:16:56;;;;;;;27.13;15.53;;;-3.00;99.90;;;;;;4977742;28;20210;-84
2022/12/12 00:19:22;;;;;;;22.70;12.83;;;-2.90;99.90;;;;;;4981630;28;20172;-84
2022/12/12 00:21:49;;;;;;;28.53;16.03;;;-2.90;99.90;;;;;;5015530;28;20182;-84
2022/12/12 00:24:15;;;;;;;25.60;13.77;;;-2.90;99.90;;;;;;4997188;28;20184;-84
2022/12/12 00:26:49;;;;;;;22.03;12.87;;;-2.90;99.90;;;;;;4980885;28;20210;-84
2022/12/12 00:29:15;;;;;;;21.83;13.73;;;-2.90;99.90;;;;;;4997555;28;20206;-84
2022/12/12 00:31:40;;;;;;;19.83;12.30;;;-2.90;99.90;;;;;;4981602;28;20183;-84
2022/12/12 00:34:06;;;;;;;17.97;11.47;;;-2.90;99.90;;;;;;4990768;28;20246;-84
2022/12/12 00:36:34;;;;;;;22.50;13.30;;;-3.00;99.90;;;;;;4980650;28;20203;-84
2022/12/12 00:39:00;;;;;;;23.53;14.17;;;-3.00;99.90;;;;;;4996958;28;20187;-84
2022/12/12 00:41:27;;;;;;;22.23;13.20;;;-2.90;99.90;;;;;;4980767;28;20179;-84
2022/12/12 00:43:52;;;;;;;21.77;12.50;;;-2.90;99.90;;;;;;4980240;28;20226;-84
2022/12/12 00:46:21;;;;;;;24.00;12.80;;;-2.90;99.90;;;;;;4996137;28;20207;-84
2022/12/12 00:48:55;;;;;;;22.00;12.33;;;-2.90;99.90;;;;;;4996755;28;20171;-84
2022/12/12 00:51:22;;;;;;;22.50;12.53;;;-3.00;99.90;;;;;;4980752;28;20179;-84
2022/12/12 00:53:49;;;;;;;19.00;11.50;;;-3.00;99.90;;;;;;4996827;28;20516;-84
2022/12/12 00:56:18;;;;;;;18.47;10.80;;;-3.00;99.90;;;;;;4980662;28;20548;-84
2022/12/12 00:58:44;;;;;;;17.17;10.53;;;-3.00;99.90;;;;;;4980555;28;20189;-84
2022/12/12 01:01:15;;;;;;;18.10;10.23;;;-3.10;99.90;;;;;;5014416;28;20214;-84
2022/12/12 01:03:42;;;;;;;16.47;9.90;;;-3.10;99.90;;;;;;4996513;28;20238;-84
2022/12/12 01:06:09;;;;;;;14.93;9.53;;;-3.10;99.90;;;;;;4980410;28;20299;-84
2022/12/12 01:08:36;;;;;;;16.10;10.30;;;-3.10;99.90;;;;;;4996509;28;20194;-84
2022/12/12 01:11:02;;;;;;;18.03;10.73;;;-3.20;99.90;;;;;;4996532;28;20203;-84
2022/12/12 01:13:28;;;;;;;22.80;13.17;;;-3.20;99.90;;;;;;4980344;28;20172;-84
2022/12/12 01:15:56;;;;;;;24.77;13.63;;;-3.30;99.90;;;;;;4981010;28;20198;-84
2022/12/12 01:18:22;;;;;;;28.27;13.87;;;-3.30;99.90;;;;;;4996484;28;20195;-84
2022/12/12 01:20:48;;;;;;;29.10;14.47;;;-3.30;99.90;;;;;;4996494;28;20300;-84
2022/12/12 01:23:14;;;;;;;28.43;14.80;;;-3.30;99.90;;;;;;4980140;28;20179;-84
2022/12/12 01:25:40;;;;;;;30.10;15.90;;;-3.30;99.90;;;;;;4979443;28;20210;-84
2022/12/12 01:28:06;;;;;;;26.37;14.90;;;-3.20;99.90;;;;;;4979899;28;20209;-84
2022/12/12 01:30:32;;;;;;;27.87;14.67;;;-3.20;99.90;;;;;;4973276;28;20214;-84
2022/12/12 01:32:58;;;;;;;29.97;15.03;;;-3.20;99.90;;;;;;4976705;28;20180;-84
2022/12/12 01:35:25;;;;;;;27.80;15.13;;;-3.20;99.90;;;;;;4976715;28;20246;-84
2022/12/12 01:37:51;;;;;;;29.60;15.00;;;-3.20;99.90;;;;;;4976417;28;20192;-84
2022/12/12 01:40:25;;;;;;;28.20;14.77;;;-3.20;99.90;;;;;;4976646;28;20204;-84
2022/12/12 01:42:52;;;;;;;34.37;16.43;;;-3.20;99.90;;;;;;4976737;28;20183;-84
2022/12/12 01:45:52;;;;;;;27.97;15.73;;;-3.20;99.90;;;;;;4960375;28;20219;-84
2022/12/12 01:48:19;;;;;;;31.63;15.80;;;-3.20;99.90;;;;;;4960622;28;20234;-84
2022/12/12 01:50:45;;;;;;;31.87;15.47;;;-3.30;99.90;;;;;;4976879;28;20199;-84
2022/12/12 01:53:13;;;;;;;31.43;15.67;;;-3.20;99.90;;;;;;4976543;28;20274;-84
2022/12/12 01:55:39;;;;;;;28.77;15.73;;;-3.20;99.90;;;;;;4960357;28;20633;-84
2022/12/12 01:58:05;;;;;;;27.73;15.47;;;-3.20;99.90;;;;;;4976361;28;20209;-84
2022/12/12 02:00:31;;;;;;;26.63;14.30;;;-3.20;99.90;;;;;;4960289;28;20188;-84
2022/12/12 02:02:58;;;;;;;21.83;13.33;;;-3.20;99.90;;;;;;4976176;28;20675;-84
2022/12/12 02:05:33;;;;;;;23.67;13.27;;;-3.20;99.90;;;;;;4976591;28;20184;-84
2022/12/12 02:08:02;;;;;;;23.33;13.23;;;-3.30;99.90;;;;;;4976208;28;20195;-84
2022/12/12 02:10:27;;;;;;;23.27;13.47;;;-3.30;99.90;;;;;;4976375;28;20203;-84
2022/12/12 02:13:05;;;;;;;28.37;15.30;;;-3.40;99.90;;;;;;4975245;28;20180;-84
2022/12/12 02:15:41;;;;;;;25.03;14.50;;;-3.40;99.90;;;;;;4976283;28;20226;-84
2022/12/12 02:18:32;;;;;;;26.53;14.87;;;-3.40;99.90;;;;;;4976041;28;20200;-84
2022/12/12 02:21:14;;;;;;;28.30;14.20;;;-3.50;99.90;;;;;;4976728;28;20168;-84
2022/12/12 02:24:10;;;;;;;25.77;13.63;;;-3.50;99.90;;;;;;4979257;28;20176;-84
2022/12/12 02:26:58;;;;;;;26.37;14.67;;;-3.40;99.90;;;;;;4995379;28;20203;-84
2022/12/12 02:29:55;;;;;;;29.93;15.23;;;-3.50;99.90;;;;;;4995338;28;20283;-84
2022/12/12 02:32:36;;;;;;;29.33;15.20;;;-3.50;99.90;;;;;;4995302;28;20266;-83
2022/12/12 02:35:29;;;;;;;31.97;15.53;;;-3.50;99.90;;;;;;4979086;28;20241;-84
2022/12/12 02:38:13;;;;;;;24.90;14.30;;;-3.50;99.90;;;;;;4995257;28;20195;-84
2022/12/12 02:41:22;;;;;;;31.07;15.73;;;-3.50;99.90;;;;;;4979033;28;20175;-84
2022/12/12 02:44:10;;;;;;;32.57;16.10;;;-3.50;99.90;;;;;;4959561;28;20271;-83
2022/12/12 02:47:27;;;;;;;29.27;15.23;;;-3.40;99.90;;;;;;4963901;28;20613;-84
2022/12/12 02:50:08;;;;;;;31.30;15.50;;;-3.40;99.90;;;;;;4901549;29;20222;-84
2022/12/12 02:52:34;;;;;;;33.63;16.07;;;-3.50;99.90;;;;;;4970808;28;20233;-84
2022/12/12 02:55:00;;;;;;;31.83;16.30;;;-3.50;99.90;;;;;;4978957;28;20389;-84
2022/12/12 02:57:26;;;;;;;31.37;16.43;;;-3.50;99.90;;;;;;4975482;28;20200;-84
2022/12/12 03:00:00;;;;;;;33.63;15.87;;;-3.50;99.90;;;;;;4993428;28;20176;-84
2022/12/12 03:09:31;;;;;;;30.70;15.23;;;-3.40;99.90;;;;;;4992886;28;20211;-84
2022/12/12 03:12:39;;;;;;;34.17;15.47;;;-3.30;99.90;;;;;;4975813;28;20164;-84
2022/12/12 03:15:22;;;;;;;33.73;16.50;;;-3.30;99.90;;;;;;4959185;28;20256;-84
2022/12/12 03:18:00;;;;;;;33.70;16.83;;;-3.30;99.90;;;;;;4959182;28;20227;-84
2022/12/12 03:20:56;;;;;;;32.10;14.87;;;-3.30;99.90;;;;;;4975680;28;20187;-84
2022/12/12 03:23:27;;;;;;;32.87;15.33;;;-3.30;99.90;;;;;;4939264;28;20195;-83
2022/12/12 03:26:15;;;;;;;31.83;15.00;;;-3.20;99.90;;;;;;4959512;28;20170;-84
2022/12/12 03:29:12;;;;;;;34.67;16.13;;;-3.20;99.90;;;;;;4959170;28;20256;-84
2022/12/12 03:31:44;;;;;;;34.50;16.27;;;-3.20;99.90;;;;;;4987870;28;20290;-84
2022/12/12 03:34:38;;;;;;;30.03;14.43;;;-3.20;99.90;;;;;;4990919;28;20168;-84
2022/12/12 03:37:14;;;;;;;32.83;15.93;;;-3.20;99.90;;;;;;4975553;28;20200;-84
2022/12/12 03:40:12;;;;;;;30.50;14.57;;;-3.10;99.90;;;;;;4975524;28;20696;-83
2022/12/12 03:42:58;;;;;;;28.67;14.53;;;-3.10;99.90;;;;;;4964137;28;20204;-84
2022/12/12 03:45:49;;;;;;;31.13;15.47;;;-3.20;99.90;;;;;;4975258;28;20176;-84
2022/12/12 03:48:28;;;;;;;28.47;14.50;;;-3.20;99.90;;;;;;4991390;28;20211;-84
2022/12/12 03:51:28;;;;;;;31.03;15.20;;;-3.20;99.90;;;;;;4978285;28;20202;-84
2022/12/12 03:54:02;;;;;;;30.63;14.87;;;-3.20;99.90;;;;;;4964706;28;20180;-84
2022/12/12 03:56:54;;;;;;;31.33;15.50;;;-3.10;99.90;;;;;;4978537;28;20203;-84
2022/12/12 03:59:27;;;;;;;28.47;14.50;;;-3.10;99.90;;;;;;4978469;28;20242;-84
2022/12/12 04:02:26;;;;;;;29.87;15.67;;;-3.10;99.90;;;;;;4982358;28;20210;-84
2022/12/12 04:05:16;;;;;;;29.70;14.60;;;-3.10;99.90;;;;;;4981240;28;20202;-84
2022/12/12 04:07:48;;;;;;;30.93;14.27;;;-3.10;99.90;;;;;;4981714;28;20246;-84
2022/12/12 04:13:07;;;;;;;33.70;15.67;;;-3.00;99.90;;;;;;5015230;28;20160;-84
2022/12/12 04:15:52;;;;;;;30.80;15.63;;;-3.00;99.90;;;;;;4981418;28;20537;-84
2022/12/12 04:18:21;;;;;;;32.07;15.53;;;-2.90;99.90;;;;;;4981482;28;20207;-84
2022/12/12 04:23:54;;;;;;;33.80;15.77;;;-2.90;99.90;;;;;;4997768;28;20171;-84
2022/12/12 04:26:40;;;;;;;32.20;17.23;;;-2.90;99.90;;;;;;5014958;28;20349;-84
2022/12/12 04:29:19;;;;;;;31.97;16.33;;;-2.90;99.90;;;;;;4981265;28;20167;-84
2022/12/12 04:31:57;;;;;;;30.27;16.53;;;-2.90;99.90;;;;;;4981277;28;20793;-84
2022/12/12 04:34:52;;;;;;;32.30;15.87;;;-2.90;99.90;;;;;;4980965;28;20216;-84
2022/12/12 04:37:55;;;;;;;28.57;15.73;;;-2.90;99.90;;;;;;4972908;28;20204;-84
2022/12/12 04:40:28;;;;;;;28.87;15.80;;;-2.90;99.90;;;;;;4997055;28;20683;-84
2022/12/12 04:43:02;;;;;;;25.63;14.10;;;-2.90;99.90;;;;;;5016649;28;20281;-84
2022/12/12 04:45:39;;;;;;;26.57;14.63;;;-3.00;99.90;;;;;;5000687;28;20166;-84
2022/12/12 04:48:07;;;;;;;25.03;13.77;;;-3.00;99.90;;;;;;5000303;28;20257;-84
2022/12/12 04:50:34;;;;;;;23.23;13.63;;;-3.00;99.90;;;;;;5000515;28;20210;-84
2022/12/12 04:53:07;;;;;;;24.73;13.47;;;-3.00;99.90;;;;;;5000481;28;20185;-83
2022/12/12 04:55:37;;;;;;;23.63;12.27;;;-3.00;99.90;;;;;;5000317;28;20174;-84
2022/12/12 04:58:04;;;;;;;20.90;12.13;;;-3.00;99.90;;;;;;5000032;28;20198;-84
2022/12/12 05:00:39;;;;;;;22.63;12.93;;;-3.00;99.90;;;;;;5008560;28;20277;-84
2022/12/12 05:03:12;;;;;;;24.33;13.67;;;-3.00;99.90;;;;;;4980280;28;20178;-84
2022/12/12 05:05:47;;;;;;;23.33;13.20;;;-3.00;99.90;;;;;;4980423;28;20277;-84
2022/12/12 05:08:28;;;;;;;23.63;12.97;;;-3.10;99.90;;;;;;4979566;28;20218;-84
2022/12/12 05:10:57;;;;;;;23.47;13.30;;;-3.10;99.90;;;;;;4973247;28;20211;-84
2022/12/12 05:13:32;;;;;;;23.80;12.63;;;-3.10;99.90;;;;;;4976851;28;20176;-84
2022/12/12 05:16:00;;;;;;;23.07;12.23;;;-3.00;99.90;;;;;;4961235;28;20174;-84
2022/12/12 05:18:26;;;;;;;23.10;12.53;;;-3.10;99.90;;;;;;4968370;28;20229;-84
2022/12/12 05:20:52;;;;;;;23.40;12.77;;;-3.10;99.90;;;;;;4980476;28;20179;-84
2022/12/12 05:23:18;;;;;;;22.90;12.90;;;-3.10;99.90;;;;;;4980850;28;20175;-83
2022/12/12 05:25:44;;;;;;;20.53;12.43;;;-3.10;99.90;;;;;;4997386;28;20246;-84
2022/12/12 05:28:10;;;;;;;21.90;13.03;;;-3.10;99.90;;;;;;4981576;28;20210;-84
2022/12/12 05:30:36;;;;;;;24.47;12.63;;;-3.10;99.90;;;;;;4997545;28;20238;-84
2022/12/12 05:33:02;;;;;;;25.17;13.67;;;-3.10;99.90;;;;;;4997911;28;20175;-84
2022/12/12 05:35:28;;;;;;;19.83;12.30;;;-3.10;99.90;;;;;;4996738;28;20322;-84
2022/12/12 05:37:54;;;;;;;23.30;13.07;;;-3.10;99.90;;;;;;4996407;28;20298;-84
2022/12/12 05:40:24;;;;;;;26.87;13.23;;;-3.20;99.90;;;;;;4976851;28;20184;-84
2022/12/12 05:42:50;;;;;;;25.07;12.47;;;-3.20;99.90;;;;;;4977686;28;20184;-84
2022/12/12 05:45:16;;;;;;;20.33;12.03;;;-3.20;99.90;;;;;;4993448;28;20188;-84
2022/12/12 05:47:42;;;;;;;25.53;14.13;;;-3.20;99.90;;;;;;4977310;28;20250;-85
2022/12/12 05:50:09;;;;;;;24.67;13.97;;;-3.20;99.90;;;;;;4977105;28;20207;-87
2022/12/12 05:52:35;;;;;;;24.50;14.03;;;-3.30;99.90;;;;;;4976952;28;20180;-84
2022/12/12 05:55:01;;;;;;;25.67;13.90;;;-3.30;99.90;;;;;;4993301;28;20179;-84
2022/12/12 05:57:26;;;;;;;28.23;14.67;;;-3.30;99.90;;;;;;4977169;28;20266;-84
2022/12/12 05:59:52;;;;;;;25.93;13.13;;;-3.30;99.90;;;;;;4978715;28;20223;-84
2022/12/12 06:02:18;;;;;;;23.30;13.23;;;-3.30;99.90;;;;;;4980147;28;20718;-84
2022/12/12 06:04:46;;;;;;;23.43;13.20;;;-3.30;99.90;;;;;;4980761;28;20185;-84
2022/12/12 06:07:17;;;;;;;24.93;14.33;;;-3.40;99.90;;;;;;4982295;28;20299;-84
2022/12/12 06:09:43;;;;;;;25.83;15.13;;;-3.30;99.90;;;;;;4960421;28;20203;-85
2022/12/12 06:12:09;;;;;;;29.60;16.17;;;-3.30;99.90;;;;;;4965230;28;20247;-85
2022/12/12 06:14:35;;;;;;;29.20;15.63;;;-3.30;99.90;;;;;;4959963;28;20184;-85
2022/12/12 06:17:01;;;;;;;29.20;16.80;;;-3.30;99.90;;;;;;4994128;28;20192;-85
2022/12/12 06:19:27;;;;;;;31.73;15.90;;;-3.30;99.90;;;;;;4964136;28;20198;-85
2022/12/12 06:21:54;;;;;;;31.80;17.47;;;-3.30;99.90;;;;;;4987435;28;20203;-86
2022/12/12 06:24:58;;;;;;;29.43;16.20;;;-3.30;99.90;;;;;;4995519;28;20186;-86
2022/12/12 06:27:24;;;;;;;28.07;15.10;;;-3.30;99.90;;;;;;4996463;28;20224;-86
2022/12/12 06:29:49;;;;;;;27.40;15.17;;;-3.30;99.90;;;;;;4980093;28;20213;-86
2022/12/12 06:32:18;;;;;;;29.50;14.40;;;-3.30;99.90;;;;;;4979895;28;20175;-86
2022/12/12 06:34:44;;;;;;;24.07;13.33;;;-3.30;99.90;;;;;;4995843;28;20191;-86
2022/12/12 06:37:10;;;;;;;24.10;14.53;;;-3.40;99.90;;;;;;4979804;28;20191;-86
2022/12/12 06:39:36;;;;;;;29.83;16.27;;;-3.30;99.90;;;;;;4979845;28;20183;-85
2022/12/12 06:42:02;;;;;;;29.20;14.97;;;-3.40;99.90;;;;;;4996172;28;20172;-85
2022/12/12 06:44:28;;;;;;;32.23;16.90;;;-3.40;99.90;;;;;;4979225;28;20184;-86
2022/12/12 06:46:54;;;;;;;26.80;14.80;;;-3.40;99.90;;;;;;4995980;28;20274;-86
2022/12/12 06:49:20;;;;;;;25.33;14.53;;;-3.40;99.90;;;;;;4980021;28;20242;-85
2022/12/12 06:51:47;;;;;;;27.87;14.93;;;-3.40;99.90;;;;;;4979719;28;20222;-85
2022/12/12 06:54:16;;;;;;;24.17;14.27;;;-3.40;99.90;;;;;;4979444;28;20250;-85
2022/12/12 06:56:43;;;;;;;25.03;13.67;;;-3.50;99.90;;;;;;4996048;28;20203;-85
2022/12/12 06:59:27;;;;;;;23.03;13.77;;;-3.50;99.90;;;;;;4971305;28;20184;-86
2022/12/12 07:01:57;;;;;;;24.87;13.80;;;-3.50;99.90;;;;;;4961525;28;20179;-85
2022/12/12 07:04:24;;;;;;;28.57;13.63;;;-3.50;99.90;;;;;;4974430;28;20241;-86
2022/12/12 07:06:50;;;;;;;20.30;12.47;;;-3.50;99.90;;;;;;4978915;28;20203;-86
2022/12/12 07:09:18;;;;;;;23.60;13.93;;;-3.50;99.90;;;;;;4970803;28;20191;-85
2022/12/12 07:11:43;;;;;;;23.93;13.47;;;-3.50;99.90;;;;;;4960316;28;20274;-85
2022/12/12 07:14:10;;;;;;;24.60;13.43;;;-3.50;99.90;;;;;;4960402;28;20275;-85
2022/12/12 07:16:41;;;;;;;22.97;12.53;;;-3.50;99.90;;;;;;4976160;28;20192;-85
2022/12/12 07:19:08;;;;;;;26.93;13.77;;;-3.50;99.90;;;;;;4960181;28;20198;-85
2022/12/12 07:21:34;;;;;;;23.33;13.67;;;-3.60;99.90;;;;;;4960172;28;20172;-85
2022/12/12 07:24:00;;;;;;;22.07;12.83;;;-3.60;99.90;;;;;;4967552;28;20175;-86
2022/12/12 07:26:26;;;;;;;24.80;13.83;;;-3.70;99.90;;;;;;4999344;28;20250;-83
2022/12/12 07:28:52;;;;;;;23.33;13.47;;;-3.70;99.90;;;;;;4982910;28;20202;-86
2022/12/12 07:31:20;;;;;;;23.03;13.27;;;-3.70;99.90;;;;;;4982973;28;20211;-86
2022/12/12 07:33:47;;;;;;;23.40;14.03;;;-3.70;99.90;;;;;;4981440;28;20179;-85
2022/12/12 07:36:14;;;;;;;20.47;13.20;;;-3.70;99.90;;;;;;4998117;28;20318;-86
2022/12/12 07:38:41;;;;;;;24.10;14.23;;;-3.70;99.90;;;;;;4982508;28;20175;-85
2022/12/12 07:41:13;;;;;;;21.77;13.60;;;-3.70;99.90;;;;;;4982152;28;20187;-86
2022/12/12 07:43:41;;;;;;;23.30;13.33;;;-3.70;99.90;;;;;;4982453;28;20230;-85
2022/12/12 07:46:09;;;;;;;24.17;13.13;;;-3.70;99.90;;;;;;4981955;28;20277;-86
2022/12/12 07:48:35;;;;;;;26.17;14.80;;;-3.70;99.90;;;;;;4982030;28;20187;-86
2022/12/12 07:51:01;;;;;;;27.97;14.43;;;-3.70;99.90;;;;;;4998135;28;20203;-86
2022/12/12 07:53:28;;;;;;;26.27;14.60;;;-3.60;99.90;;;;;;4981805;28;20205;-85
2022/12/12 07:55:54;;;;;;;25.90;15.20;;;-3.60;99.90;;;;;;4982249;28;20172;-86
2022/12/12 07:58:20;;;;;;;25.43;14.47;;;-3.60;99.90;;;;;;4981859;28;20686;-85
2022/12/12 08:00:45;;;;;;;26.97;13.97;;;-3.50;99.90;;;;;;4982084;28;20183;-86
2022/12/12 08:03:11;;;;;;;27.13;14.60;;;-3.50;99.90;;;;;;5015384;28;20237;-85
2022/12/12 08:05:42;;;;;;;30.20;14.33;;;-3.50;99.90;;;;;;4972968;28;20191;-86
2022/12/12 08:08:09;;;;;;;26.67;15.03;;;-3.50;99.90;;;;;;4962284;28;20299;-86
2022/12/12 08:10:39;;;;;;;23.23;14.13;;;-3.50;99.90;;;;;;4978336;28;20184;-85
2022/12/12 08:13:05;;;;;;;29.33;15.43;;;-3.40;99.90;;;;;;4978469;28;20526;-86
2022/12/12 08:15:31;;;;;;;28.70;15.17;;;-3.40;99.90;;;;;;4962407;28;20277;-86
2022/12/12 08:17:57;;;;;;;25.87;14.17;;;-3.30;99.90;;;;;;4980984;28;20203;-85
2022/12/12 08:20:23;;;;;;;27.43;15.73;;;-3.30;99.90;;;;;;4981784;28;20285;-85
2022/12/12 08:23:19;;;;;;;31.53;16.13;;;-3.30;99.90;;;;;;4989721;28;20268;-84
2022/12/12 08:25:53;;;;;;;33.87;15.87;;;-3.30;99.90;;;;;;4981813;28;20218;-84
2022/12/12 08:28:22;;;;;;;31.77;15.20;;;-3.20;99.90;;;;;;4979778;28;20211;-85
2022/12/12 08:30:49;;;;;;;29.53;15.90;;;-3.20;99.90;;;;;;4989434;28;20203;-85
2022/12/12 08:33:16;;;;;;;35.10;16.97;;;-3.20;99.90;;;;;;4982988;28;20179;-85
2022/12/12 08:35:42;;;;;;;26.77;13.63;;;-3.20;99.90;;;;;;5019025;28;20199;-86
2022/12/12 08:38:09;;;;;;;26.67;14.53;;;-3.20;99.90;;;;;;4989293;28;20219;-85
2022/12/12 08:40:36;;;;;;;27.57;14.20;;;-3.20;99.90;;;;;;4972808;28;20183;-85
2022/12/12 08:43:02;;;;;;;28.37;14.33;;;-3.20;99.90;;;;;;4995311;28;20195;-85
2022/12/12 08:45:28;;;;;;;29.13;14.33;;;-3.10;99.90;;;;;;4973820;28;20199;-85
2022/12/12 08:47:54;;;;;;;31.80;16.47;;;-3.10;99.90;;;;;;4987656;28;20210;-84
2022/12/12 08:50:20;;;;;;;29.20;15.50;;;-3.10;99.90;;;;;;4994031;28;20211;-84
2022/12/12 08:52:46;;;;;;;34.47;16.80;;;-3.10;99.90;;;;;;4989173;28;20180;-84
2022/12/12 08:55:16;;;;;;;32.30;16.37;;;-3.10;99.90;;;;;;4980716;28;20206;-84
2022/12/12 08:57:47;;;;;;;33.37;16.47;;;-3.00;99.90;;;;;;5005680;28;20196;-84
2022/12/12 09:00:19;;;;;;;30.53;16.27;;;-3.00;99.90;;;;;;5000822;28;20285;-84
2022/12/12 09:02:55;;;;;;;32.13;15.60;;;-3.00;99.90;;;;;;4990487;28;20241;-84
2022/12/12 09:05:25;;;;;;;30.90;16.13;;;-3.00;99.90;;;;;;4991930;28;20205;-84
2022/12/12 09:07:58;;;;;;;30.87;15.90;;;-3.00;99.90;;;;;;4998037;28;20211;-85
2022/12/12 09:10:26;;;;;;;29.07;14.13;;;-3.00;99.90;;;;;;4988057;28;20203;-84
2022/12/12 09:12:54;;;;;;;27.63;14.57;;;-3.00;99.90;;;;;;4996209;28;20190;-84
2022/12/12 09:15:20;;;;;;;30.13;14.50;;;-3.00;99.90;;;;;;4979609;28;20276;-84
2022/12/12 09:17:49;;;;;;;28.73;14.47;;;-3.00;99.90;;;;;;4981927;28;20218;-84
2022/12/12 09:20:15;;;;;;;27.97;14.57;;;-3.10;99.90;;;;;;4991489;28;20195;-84
2022/12/12 09:22:46;;;;;;;29.00;14.60;;;-3.10;99.90;;;;;;4990758;28;20253;-84
2022/12/12 09:25:13;;;;;;;31.47;14.93;;;-3.00;99.90;;;;;;4987700;28;20187;-84
2022/12/12 09:27:39;;;;;;;28.20;14.43;;;-3.00;99.90;;;;;;4996608;28;20334;-85
2022/12/12 09:30:06;;;;;;;26.47;14.07;;;-3.00;99.90;;;;;;4979979;28;20215;-84
2022/12/12 09:32:31;;;;;;;29.57;15.03;;;-3.00;99.90;;;;;;4996551;28;20235;-85
2022/12/12 09:34:57;;;;;;;26.10;13.43;;;-3.10;99.90;;;;;;4972567;28;20263;-85
2022/12/12 09:37:23;;;;;;;25.07;13.80;;;-3.00;99.90;;;;;;5013941;28;20221;-85
2022/12/12 09:39:51;;;;;;;28.27;14.73;;;-3.00;99.90;;;;;;4964409;28;20180;-85
2022/12/12 09:42:22;;;;;;;24.37;13.13;;;-2.90;99.90;;;;;;4960576;28;20179;-85
2022/12/12 09:44:49;;;;;;;28.40;14.13;;;-3.00;99.90;;;;;;4976754;28;20210;-84
2022/12/12 09:47:30;;;;;;;21.00;12.47;;;-3.00;99.90;;;;;;5014150;28;20242;-84
2022/12/12 09:50:05;;;;;;;25.57;14.13;;;-3.00;99.90;;;;;;4967698;28;20299;-85
2022/12/12 09:52:35;;;;;;;25.70;13.63;;;-2.90;99.90;;;;;;4973536;28;20179;-84
2022/12/12 09:55:31;;;;;;;27.20;13.10;;;-2.90;99.90;;;;;;4998224;28;20170;-85
2022/12/12 09:58:05;;;;;;;27.23;13.33;;;-2.80;99.90;;;;;;4973435;28;20208;-84
2022/12/12 10:00:35;;;;;;;26.10;14.07;;;-2.80;99.90;;;;;;4975791;28;20189;-85
2022/12/12 10:03:21;;;;;;;25.63;13.27;;;-2.70;99.90;;;;;;4996557;28;20179;-85
2022/12/12 10:05:47;;;;;;;23.83;12.80;;;-2.60;99.90;;;;;;4980579;28;20183;-84
2022/12/12 10:08:13;;;;;;;27.87;12.93;;;-2.60;99.90;;;;;;4977198;28;20210;-85
2022/12/12 10:10:43;;;;;;;21.93;12.17;;;-2.50;99.90;;;;;;4960750;28;20212;-84
2022/12/12 10:13:23;;;;;;;24.30;11.30;;;-2.40;99.90;;;;;;4960865;28;20230;-85
2022/12/12 10:15:53;;;;;;;22.10;11.77;;;-2.30;99.90;;;;;;4971265;28;20179;-84
2022/12/12 10:18:29;;;;;;;21.23;11.03;;;-2.30;99.90;;;;;;4973594;28;20203;-84
2022/12/12 10:20:58;;;;;;;21.10;11.63;;;-2.30;99.90;;;;;;4976840;28;20179;-85
2022/12/12 10:23:38;;;;;;;20.17;10.53;;;-2.20;99.90;;;;;;4960361;28;20192;-85
2022/12/12 10:26:12;;;;;;;19.50;11.07;;;-2.20;99.90;;;;;;4977160;28;20180;-84
2022/12/12 10:28:38;;;;;;;18.83;11.47;;;-2.00;99.90;;;;;;4961037;28;20184;-85
2022/12/12 10:31:19;;;;;;;18.53;10.80;;;-1.90;99.90;;;;;;4967033;28;20694;-85
2022/12/12 10:34:03;;;;;;;17.60;10.53;;;-1.90;99.90;;;;;;4987773;28;20190;-85
2022/12/12 10:37:15;;;;;;;19.43;9.70;;;-1.80;99.90;;;;;;4979608;28;20208;-84
2022/12/12 10:40:11;;;;;;;18.13;10.13;;;-1.80;99.90;;;;;;4995908;28;20179;-85
2022/12/12 10:42:49;;;;;;;16.67;9.73;;;-1.70;99.90;;;;;;4960944;28;20172;-85
2022/12/12 10:45:34;;;;;;;19.83;10.73;;;-1.60;99.90;;;;;;4992192;28;20195;-85
2022/12/12 10:48:00;;;;;;;16.53;9.93;;;-1.50;99.90;;;;;;4979904;28;20290;-85
2022/12/12 10:50:47;;;;;;;16.57;9.67;;;-1.50;99.90;;;;;;4979417;28;20204;-85
2022/12/12 10:53:14;;;;;;;18.47;9.83;;;-1.40;99.90;;;;;;4967392;28;20188;-85
2022/12/12 10:55:52;;;;;;;20.63;10.27;;;-1.40;99.90;;;;;;4962823;28;20173;-86
2022/12/12 10:58:23;;;;;;;18.10;9.87;;;-1.30;99.90;;;;;;4996324;28;20214;-86
2022/12/12 11:00:48;;;;;;;17.77;10.60;;;-1.30;99.90;;;;;;4999692;28;20176;-86
2022/12/12 11:03:31;;;;;;;17.03;9.73;;;-1.20;99.90;;;;;;4982978;28;20187;-86
2022/12/12 11:06:01;;;;;;;19.90;10.80;;;-1.10;99.90;;;;;;4983501;28;20258;-85
2022/12/12 11:08:32;;;;;;;18.70;10.30;;;-1.00;99.90;;;;;;4964105;28;20199;-86
2022/12/12 11:11:22;;;;;;;16.10;10.07;;;-0.80;99.90;;;;;;4963892;28;20200;-86
2022/12/12 11:13:53;;;;;;;18.57;10.77;;;-0.80;99.90;;;;;;4965800;28;20172;-86
2022/12/12 11:16:39;;;;;;;17.87;10.23;;;-0.90;99.90;;;;;;5016619;28;20168;-85
2022/12/12 11:19:20;;;;;;;16.30;10.07;;;-0.80;99.90;;;;;;4999463;28;20254;-86
2022/12/12 11:21:47;;;;;;;16.57;10.37;;;-1.00;99.90;;;;;;4983358;28;20183;-85
2022/12/12 11:24:54;;;;;;;26.13;11.30;;;-0.90;99.90;;;;;;4993561;28;20277;-86
2022/12/12 11:27:45;;;;;;;17.60;10.40;;;-0.70;99.90;;;;;;5002175;28;20301;-85
2022/12/12 11:30:40;;;;;;;19.83;10.87;;;-0.70;99.90;;;;;;4989786;28;20350;-85
2022/12/12 11:33:17;;;;;;;16.97;9.93;;;-0.80;99.90;;;;;;4982637;28;20187;-86
2022/12/12 11:35:54;;;;;;;16.97;10.50;;;-0.80;99.90;;;;;;5016283;28;20266;-85
2022/12/12 11:38:29;;;;;;;19.60;10.27;;;-0.70;99.90;;;;;;4983243;28;20210;-85
2022/12/12 11:41:01;;;;;;;17.17;10.17;;;-0.60;99.90;;;;;;4982754;28;20185;-85
2022/12/12 11:43:35;;;;;;;18.47;10.50;;;-0.50;99.90;;;;;;4998771;28;20177;-85
2022/12/12 11:46:13;;;;;;;16.47;10.30;;;-0.30;99.90;;;;;;4998583;28;20211;-85
2022/12/12 11:48:50;;;;;;;16.07;9.80;;;-0.20;99.90;;;;;;4999218;28;20231;-86
2022/12/12 11:51:40;;;;;;;16.60;10.17;;;-0.10;99.90;;;;;;4982661;28;20283;-85
2022/12/12 11:54:19;;;;;;;20.40;10.60;;;0.00;99.90;;;;;;4982085;28;20174;-85
2022/12/12 11:57:10;;;;;;;18.70;10.23;;;0.20;99.90;;;;;;4982271;28;20197;-85
2022/12/12 11:59:57;;;;;;;16.77;10.17;;;0.30;99.90;;;;;;4982579;28;20186;-85
2022/12/12 12:02:47;;;;;;;15.47;9.90;;;0.40;99.90;;;;;;4982256;28;20239;-84
2022/12/12 12:05:45;;;;;;;19.97;10.90;;;0.60;99.90;;;;;;4998702;28;20218;-84
2022/12/12 12:08:34;;;;;;;18.63;10.13;;;0.70;99.90;;;;;;4982178;28;20202;-85
2022/12/12 12:11:32;;;;;;;20.90;10.03;;;0.70;99.90;;;;;;4997841;28;20284;-84
2022/12/12 12:13:58;;;;;;;20.57;11.30;;;0.80;99.90;;;;;;4997780;28;20190;-84
2022/12/12 12:16:33;;;;;;;20.33;10.77;;;0.80;99.90;;;;;;4981841;28;20258;-85
2022/12/12 12:19:24;;;;;;;18.83;11.20;;;0.80;99.90;;;;;;4982053;28;20185;-84
2022/12/12 12:22:25;;;;;;;21.07;11.30;;;0.60;99.90;;;;;;4981867;28;20192;-85
2022/12/12 12:25:20;;;;;;;17.53;10.07;;;0.60;99.90;;;;;;4982018;28;20176;-85
2022/12/12 12:27:51;;;;;;;18.47;9.77;;;0.20;99.90;;;;;;4980273;28;20240;-84
2022/12/12 12:30:24;;;;;;;16.17;10.23;;;0.00;99.90;;;;;;4982000;28;20349;-85
2022/12/12 12:33:02;;;;;;;17.17;9.43;;;0.10;99.90;;;;;;4981880;28;20179;-85
2022/12/12 12:35:30;;;;;;;15.23;9.60;;;0.30;99.90;;;;;;4981659;28;20180;-85
2022/12/12 12:38:09;;;;;;;15.60;10.03;;;0.50;99.90;;;;;;4978515;28;20244;-85
2022/12/12 12:40:53;;;;;;;18.23;10.07;;;0.60;99.90;;;;;;4962628;28;20244;-85
2022/12/12 12:43:53;;;;;;;16.67;10.60;;;0.70;99.90;;;;;;4961943;28;20191;-85
2022/12/12 12:46:33;;;;;;;17.30;11.07;;;0.60;99.90;;;;;;4972931;28;20189;-85
2022/12/12 12:49:13;;;;;;;16.80;10.93;;;0.50;99.90;;;;;;4978434;28;20174;-85
2022/12/12 12:51:45;;;;;;;15.83;10.07;;;0.50;99.90;;;;;;4980623;28;20182;-85
2022/12/12 12:54:28;;;;;;;17.83;9.33;;;0.70;99.90;;;;;;4978185;28;20278;-85
2022/12/12 12:57:18;;;;;;;17.73;10.53;;;0.90;99.90;;;;;;4963309;28;20199;-85
2022/12/12 12:59:51;;;;;;;18.23;10.37;;;0.80;99.90;;;;;;4960080;28;20189;-85
2022/12/12 13:02:39;;;;;;;15.87;10.07;;;0.90;99.90;;;;;;4981518;28;20617;-85
2022/12/12 13:05:13;;;;;;;17.33;10.20;;;1.00;99.90;;;;;;4962309;28;20183;-85
2022/12/12 13:07:47;;;;;;;17.43;9.80;;;1.20;99.90;;;;;;4980915;28;20246;-85
2022/12/12 13:10:22;;;;;;;18.07;10.30;;;1.20;99.90;;;;;;4980667;28;20217;-85
2022/12/12 13:12:57;;;;;;;14.60;9.67;;;1.30;99.90;;;;;;4965524;28;20186;-85
2022/12/12 13:15:46;;;;;;;15.40;10.20;;;1.40;99.90;;;;;;4960500;28;20176;-85